Time;durP1;ratioP1;P1;durP2;ratioP2;P2;SDS_P1;SDS_P2;PMS_P1;PMS_P2;Temp;Humidity;BMP_temperature;BMP_pressure;BME280_temperature;BME280_humidity;BME280_pressure;Samples;Min_cycle;Max_cycle;Signal;HPM_P1;HPM_P2
2022/02/25 00:01:37;;;;;;;28.90;13.40;;;5.40;46.20;;;;;;5057610;28;20041;-76
2022/02/25 00:04:03;;;;;;;21.38;11.32;;;5.40;46.10;;;;;;5053391;28;20029;-75
2022/02/25 00:06:29;;;;;;;27.02;13.40;;;5.40;45.50;;;;;;5052975;28;20044;-76
2022/02/25 00:08:55;;;;;;;28.02;13.45;;;5.40;46.00;;;;;;5053350;28;20067;-76
2022/02/25 00:11:21;;;;;;;25.88;11.35;;;5.40;46.30;;;;;;5059802;28;20097;-76
2022/02/25 00:13:48;;;;;;;32.00;13.25;;;5.40;46.30;;;;;;5063696;28;20494;-76
2022/02/25 00:16:14;;;;;;;33.25;14.77;;;5.40;46.40;;;;;;5052846;28;20037;-76
2022/02/25 00:18:40;;;;;;;28.40;13.32;;;5.40;46.70;;;;;;5042117;28;20032;-76
2022/02/25 00:21:06;;;;;;;34.63;16.65;;;5.40;46.80;;;;;;5066110;28;20068;-76
2022/02/25 00:23:32;;;;;;;27.63;14.13;;;5.30;46.70;;;;;;5037192;28;20039;-76
2022/02/25 00:25:58;;;;;;;31.98;14.35;;;5.30;46.70;;;;;;5051745;28;20041;-75
2022/02/25 00:28:24;;;;;;;33.35;16.77;;;5.30;46.70;;;;;;5035786;28;20044;-75
2022/02/25 00:30:50;;;;;;;34.50;15.60;;;5.30;46.70;;;;;;5070113;28;20075;-75
2022/02/25 00:33:17;;;;;;;69.00;25.95;;;5.30;46.70;;;;;;5068620;28;20497;-76
2022/02/25 00:35:43;;;;;;;50.05;19.90;;;5.30;46.80;;;;;;5052776;28;20367;-75
2022/02/25 00:38:09;;;;;;;39.40;17.55;;;5.20;46.20;;;;;;5054062;28;20120;-76
2022/02/25 00:40:35;;;;;;;42.15;17.65;;;5.30;47.60;;;;;;5064784;28;20446;-76
2022/02/25 00:43:01;;;;;;;38.60;17.15;;;5.20;46.80;;;;;;5053788;28;20033;-76
2022/02/25 00:45:27;;;;;;;34.00;16.33;;;5.20;46.90;;;;;;5050965;28;20045;-76
2022/02/25 00:47:53;;;;;;;75.75;24.58;;;5.20;47.20;;;;;;5051889;28;20583;-76
2022/02/25 00:50:19;;;;;;;53.03;22.45;;;5.20;47.20;;;;;;5052919;28;20041;-76
2022/02/25 00:52:46;;;;;;;45.88;17.38;;;5.10;47.30;;;;;;5052648;28;20087;-76
2022/02/25 00:55:12;;;;;;;37.80;14.57;;;5.10;47.30;;;;;;5052029;28;20404;-76
2022/02/25 00:57:46;;;;;;;46.72;18.92;;;5.10;47.40;;;;;;5053851;28;20098;-75
2022/02/25 01:00:31;;;;;;;38.05;15.52;;;5.20;47.30;;;;;;5052026;28;20528;-76
2022/02/25 01:02:57;;;;;;;30.17;14.55;;;5.20;47.40;;;;;;5054476;28;20049;-75
2022/02/25 01:05:24;;;;;;;44.90;16.77;;;5.20;47.30;;;;;;5053728;28;20130;-76
2022/02/25 01:07:50;;;;;;;39.70;14.65;;;5.20;47.30;;;;;;5052339;28;20033;-76
2022/02/25 01:10:18;;;;;;;36.92;15.55;;;5.10;46.80;;;;;;5053071;28;20029;-76
2022/02/25 01:12:46;;;;;;;37.95;15.50;;;5.10;47.40;;;;;;5052280;28;20043;-76
2022/02/25 01:15:14;;;;;;;35.95;14.93;;;5.10;47.50;;;;;;5052490;28;20125;-76
2022/02/25 01:17:40;;;;;;;41.90;17.85;;;5.10;47.60;;;;;;5053118;28;20067;-77
2022/02/25 01:20:07;;;;;;;;;;;5.10;47.90;;;;;;5054269;28;20036;-75
2022/02/25 01:22:34;;;;;;;40.70;14.40;;;5.10;47.20;;;;;;5067554;28;20369;-76
2022/02/25 01:25:01;;;;;;;38.42;15.52;;;5.10;47.50;;;;;;5052852;28;20056;-76
2022/02/25 01:27:28;;;;;;;35.67;16.15;;;5.10;47.70;;;;;;5068020;28;20028;-76
2022/02/25 01:29:54;;;;;;;34.15;14.70;;;5.10;47.90;;;;;;5084676;28;20040;-76
2022/02/25 01:32:20;;;;;;;39.70;15.50;;;5.10;48.10;;;;;;5053277;28;20556;-76
2022/02/25 01:34:46;;;;;;;28.75;13.65;;;5.10;48.10;;;;;;5052444;28;20132;-75
2022/02/25 01:37:12;;;;;;;30.38;13.68;;;5.10;48.10;;;;;;5069311;28;20429;-75
2022/02/25 01:39:39;;;;;;;22.15;10.63;;;5.10;48.00;;;;;;5052135;28;20124;-76
2022/02/25 01:42:06;;;;;;;24.27;12.07;;;5.20;48.10;;;;;;5052697;28;20436;-76
2022/02/25 01:44:32;;;;;;;23.90;11.02;;;5.10;48.10;;;;;;5052479;28;20029;-76
2022/02/25 01:47:03;;;;;;;27.98;11.35;;;5.20;48.40;;;;;;5052703;28;20033;-76
2022/02/25 01:49:30;;;;;;;23.48;10.18;;;5.10;48.40;;;;;;5052234;28;20044;-75
2022/02/25 01:52:06;;;;;;;24.63;11.25;;;5.20;48.40;;;;;;5050718;28;20098;-76
2022/02/25 01:54:33;;;;;;;23.50;10.60;;;5.20;48.60;;;;;;5045033;28;20037;-76
2022/02/25 01:57:00;;;;;;;22.20;9.38;;;5.20;48.60;;;;;;5058604;28;20494;-76
2022/02/25 01:59:29;;;;;;;21.63;9.27;;;5.10;48.80;;;;;;5047831;28;20032;-76
2022/02/25 02:01:56;;;;;;;22.90;9.52;;;5.10;48.90;;;;;;5068291;28;20076;-76
2022/02/25 02:04:23;;;;;;;25.58;10.52;;;5.10;48.50;;;;;;5078053;28;20090;-76
2022/02/25 02:06:50;;;;;;;23.13;11.23;;;5.00;48.60;;;;;;5040211;28;20406;-76
2022/02/25 02:09:16;;;;;;;23.75;11.07;;;5.00;49.10;;;;;;5064704;28;20048;-76
2022/02/25 02:11:47;;;;;;;26.35;11.95;;;5.00;49.30;;;;;;5050486;28;20049;-77
2022/02/25 02:14:17;;;;;;;21.50;10.65;;;5.00;49.20;;;;;;5050222;28;20469;-75
2022/02/25 02:17:02;;;;;;;23.15;11.02;;;4.80;49.00;;;;;;5051718;28;20044;-76
2022/02/25 02:19:29;;;;;;;26.73;10.88;;;4.80;49.40;;;;;;5034874;28;20095;-76
2022/02/25 02:21:57;;;;;;;19.95;10.13;;;4.80;48.70;;;;;;5044636;28;20397;-75
2022/02/25 02:24:24;;;;;;;17.10;8.32;;;4.70;49.10;;;;;;5050558;28;20040;-76
2022/02/25 02:26:52;;;;;;;16.85;8.43;;;4.60;48.60;;;;;;5051689;28;20040;-75
2022/02/25 02:29:19;;;;;;;17.85;8.75;;;4.60;49.30;;;;;;5032535;28;20036;-75
2022/02/25 02:31:45;;;;;;;21.20;9.27;;;4.50;49.30;;;;;;5051014;28;20116;-76
2022/02/25 02:34:14;;;;;;;16.50;8.07;;;4.60;49.50;;;;;;5066297;28;20037;-75
2022/02/25 02:36:40;;;;;;;15.98;8.52;;;4.50;49.50;;;;;;5032795;28;20060;-77
2022/02/25 02:39:08;;;;;;;18.20;8.98;;;4.40;49.20;;;;;;5050763;28;20039;-76
2022/02/25 02:41:38;;;;;;;19.50;9.18;;;4.30;49.30;;;;;;5053016;28;20086;-76
2022/02/25 02:44:05;;;;;;;19.23;8.93;;;4.30;49.90;;;;;;5051005;28;20044;-75
2022/02/25 02:46:32;;;;;;;15.63;8.07;;;4.30;50.00;;;;;;5050738;28;20033;-76
2022/02/25 02:48:58;;;;;;;;;;;4.20;49.50;;;;;;5052113;28;20136;-77
2022/02/25 02:51:24;;;;;;;16.80;8.02;;;4.10;49.50;;;;;;5049849;28;19960;-77
2022/02/25 02:53:50;;;;;;;17.33;7.53;;;4.10;50.20;;;;;;5051434;28;20389;-75
2022/02/25 02:56:17;;;;;;;47.35;17.83;;;4.10;51.30;;;;;;5041281;28;20123;-76
2022/02/25 02:58:43;;;;;;;;;;;4.10;50.70;;;;;;5055582;28;20059;-76
2022/02/25 03:01:09;;;;;;;35.88;13.30;;;4.10;50.50;;;;;;5050754;28;19921;-76
2022/02/25 03:03:35;;;;;;;33.42;11.90;;;4.00;51.20;;;;;;5051811;28;20024;-76
2022/02/25 03:06:01;;;;;;;24.88;9.02;;;4.10;51.10;;;;;;5046912;28;20052;-76
2022/02/25 03:08:28;;;;;;;;;;;4.10;51.10;;;;;;5039593;28;20036;-75
2022/02/25 03:10:54;;;;;;;20.77;7.57;;;4.10;50.50;;;;;;5064042;28;19921;-76
2022/02/25 03:13:20;;;;;;;18.50;6.88;;;4.00;50.90;;;;;;5062410;28;20048;-76
2022/02/25 03:15:46;;;;;;;16.23;6.07;;;4.00;51.00;;;;;;5055949;28;20063;-76
2022/02/25 03:18:13;;;;;;;;;;;4.00;51.00;;;;;;5058906;28;20066;-75
2022/02/25 03:20:40;;;;;;;18.58;6.70;;;3.90;50.60;;;;;;5067882;28;19916;-77
2022/02/25 03:23:06;;;;;;;16.75;7.60;;;3.70;51.00;;;;;;5046738;28;20044;-75
2022/02/25 03:25:32;;;;;;;17.33;8.57;;;3.70;51.40;;;;;;5067064;28;20040;-76
2022/02/25 03:27:58;;;;;;;16.25;7.57;;;3.60;51.00;;;;;;5056996;28;20052;-76
2022/02/25 03:30:24;;;;;;;15.07;6.55;;;3.60;51.70;;;;;;5056124;28;20025;-76
2022/02/25 03:32:51;;;;;;;19.60;8.15;;;3.60;51.60;;;;;;5057265;28;20059;-76
2022/02/25 03:35:18;;;;;;;16.80;6.78;;;3.50;51.10;;;;;;5056270;28;20064;-75
2022/02/25 03:37:44;;;;;;;15.85;7.03;;;3.50;51.70;;;;;;5055703;28;20678;-76
2022/02/25 03:40:12;;;;;;;14.27;5.20;;;3.50;51.80;;;;;;5070855;28;20393;-76
2022/02/25 03:42:39;;;;;;;11.90;5.43;;;3.50;51.90;;;;;;5073180;28;20036;-76
2022/02/25 03:45:06;;;;;;;;;;;3.50;51.40;;;;;;5056473;28;20041;-76
2022/02/25 03:47:33;;;;;;;11.52;5.28;;;3.40;51.30;;;;;;5071987;28;19927;-77
2022/02/25 03:50:00;;;;;;;10.77;4.78;;;3.40;51.60;;;;;;5057372;28;20589;-76
2022/02/25 03:52:27;;;;;;;12.77;5.35;;;3.40;51.90;;;;;;5055063;28;20041;-75
2022/02/25 03:54:53;;;;;;;;;;;3.50;52.10;;;;;;5055286;28;20089;-75
2022/02/25 03:57:19;;;;;;;15.88;6.65;;;3.50;51.60;;;;;;5058596;28;19912;-75
2022/02/25 03:59:45;;;;;;;;;;;3.50;51.80;;;;;;5056559;28;20029;-75
2022/02/25 04:02:11;;;;;;;22.63;7.75;;;3.50;51.50;;;;;;5054900;28;19921;-76
2022/02/25 04:04:38;;;;;;;18.45;7.53;;;3.50;51.90;;;;;;5054785;28;20056;-75
2022/02/25 04:07:04;;;;;;;15.38;6.18;;;3.40;52.10;;;;;;5072573;28;20090;-76
2022/02/25 04:09:31;;;;;;;14.00;5.50;;;3.40;52.20;;;;;;5065839;28;20087;-76
2022/02/25 04:11:57;;;;;;;12.25;5.90;;;3.50;52.60;;;;;;5056765;28;20093;-75
2022/02/25 04:14:23;;;;;;;;;;;3.50;52.60;;;;;;5045853;28;20452;-76
2022/02/25 04:16:52;;;;;;;8.77;3.20;;;3.40;51.50;;;;;;5064694;28;19948;-75
2022/02/25 04:19:19;;;;;;;10.20;4.97;;;3.30;52.50;;;;;;5067757;28;20490;-76
2022/02/25 04:21:46;;;;;;;10.80;4.03;;;3.30;52.60;;;;;;5037254;28;20584;-76
2022/02/25 04:24:13;;;;;;;6.15;2.90;;;3.30;52.60;;;;;;5052895;28;20120;-75
2022/02/25 04:26:40;;;;;;;6.15;2.45;;;3.20;52.90;;;;;;5052034;28;20025;-76
2022/02/25 04:29:06;;;;;;;5.03;1.60;;;3.10;53.00;;;;;;5035171;28;20052;-76
2022/02/25 04:31:33;;;;;;;5.70;1.50;;;3.10;53.20;;;;;;5066656;28;20041;-75
2022/02/25 04:33:59;;;;;;;5.05;1.67;;;3.20;53.30;;;;;;5070812;28;20046;-75
2022/02/25 04:36:25;;;;;;;6.55;1.60;;;3.20;53.40;;;;;;5052191;28;20498;-76
2022/02/25 04:38:52;;;;;;;5.78;2.58;;;3.20;53.30;;;;;;5052052;28;20114;-75
2022/02/25 04:41:20;;;;;;;7.03;1.85;;;3.20;53.30;;;;;;5050647;28;20371;-75
2022/02/25 04:43:46;;;;;;;5.47;1.80;;;3.10;53.40;;;;;;5070875;28;20037;-76
2022/02/25 04:46:31;;;;;;;5.25;1.58;;;3.10;53.40;;;;;;5055527;28;20037;-75
2022/02/25 04:48:57;;;;;;;8.70;1.90;;;3.10;54.00;;;;;;5068594;28;20032;-76
2022/02/25 04:51:23;;;;;;;7.18;2.33;;;3.00;53.70;;;;;;5051658;28;20025;-75
2022/02/25 04:53:50;;;;;;;5.40;2.08;;;3.00;53.80;;;;;;5055726;28;20029;-76
2022/02/25 04:56:16;;;;;;;;;;;3.00;53.80;;;;;;5051624;28;20048;-75
2022/02/25 04:58:43;;;;;;;5.22;2.00;;;2.90;53.30;;;;;;5050974;28;20023;-76
2022/02/25 05:01:09;;;;;;;8.13;1.67;;;2.90;53.50;;;;;;5050649;28;20040;-75
2022/02/25 05:03:37;;;;;;;6.70;1.52;;;2.90;53.90;;;;;;5052236;28;20043;-76
2022/02/25 05:06:03;;;;;;;4.43;1.63;;;2.80;54.10;;;;;;5052640;28;20047;-76
2022/02/25 05:08:29;;;;;;;4.68;1.75;;;2.80;53.70;;;;;;5058988;28;20032;-76
2022/02/25 05:10:56;;;;;;;;;;;2.80;54.40;;;;;;5069997;28;20041;-75
2022/02/25 05:13:22;;;;;;;5.93;1.80;;;2.80;53.70;;;;;;5063158;28;19924;-76
2022/02/25 05:21:17;;;;;;;25.10;8.57;;;2.80;54.20;;;;;;5050675;28;20040;-78
2022/02/25 05:23:43;;;;;;;;;;;2.80;54.30;;;;;;5042638;28;20024;-76
2022/02/25 05:26:09;;;;;;;9.90;4.15;;;2.80;53.90;;;;;;5065396;28;20432;-76
2022/02/25 05:28:37;;;;;;;8.60;3.40;;;2.80;54.30;;;;;;5050537;28;20055;-77
2022/02/25 05:31:03;;;;;;;10.15;3.92;;;2.70;54.40;;;;;;5050862;28;20098;-77
2022/02/25 05:33:29;;;;;;;11.18;4.75;;;2.80;54.60;;;;;;5035303;28;20064;-75
2022/02/25 05:35:55;;;;;;;11.25;6.10;;;2.70;54.60;;;;;;5051722;28;20028;-75
2022/02/25 05:38:21;;;;;;;15.35;5.18;;;2.70;54.70;;;;;;5051712;28;20045;-75
2022/02/25 05:40:47;;;;;;;11.93;4.70;;;2.60;54.70;;;;;;5050970;28;20453;-74
2022/02/25 05:43:13;;;;;;;9.75;4.45;;;2.60;54.80;;;;;;5052904;28;20068;-77
2022/02/25 05:45:39;;;;;;;12.95;4.97;;;2.50;54.90;;;;;;5052205;28;20032;-76
2022/02/25 05:48:06;;;;;;;15.15;4.45;;;2.50;54.80;;;;;;5054365;28;20095;-76
2022/02/25 05:50:32;;;;;;;11.88;4.78;;;2.50;54.90;;;;;;5049881;28;20033;-76
2022/02/25 05:52:58;;;;;;;28.55;4.93;;;2.40;54.30;;;;;;5050331;28;20551;-76
2022/02/25 05:55:25;;;;;;;14.13;4.22;;;2.50;54.80;;;;;;5049791;28;20048;-77
2022/02/25 05:57:52;;;;;;;;;;;2.50;54.30;;;;;;5060718;28;20132;-77
2022/02/25 06:00:19;;;;;;;22.38;5.57;;;2.50;54.30;;;;;;5051580;28;19920;-76
2022/02/25 06:02:48;;;;;;;12.30;4.32;;;2.50;54.50;;;;;;5069631;28;20086;-77
2022/02/25 06:05:15;;;;;;;8.80;3.55;;;2.50;54.70;;;;;;5062572;28;20057;-77
2022/02/25 06:07:42;;;;;;;7.32;3.28;;;2.50;54.80;;;;;;5066421;28;20039;-77
2022/02/25 06:10:09;;;;;;;10.90;3.45;;;2.60;54.90;;;;;;5060439;28;20538;-77
2022/02/25 06:12:36;;;;;;;11.13;3.63;;;2.60;55.00;;;;;;5049564;28;20040;-76
2022/02/25 06:15:02;;;;;;;18.85;4.88;;;2.60;54.60;;;;;;5052378;28;20401;-75
2022/02/25 06:17:28;;;;;;;;;;;2.50;54.70;;;;;;5051242;28;20033;-76
2022/02/25 06:19:54;;;;;;;15.02;4.93;;;2.60;54.70;;;;;;5049608;28;20431;-77
2022/02/25 06:22:21;;;;;;;13.18;4.82;;;2.60;54.80;;;;;;5051587;28;20481;-76
2022/02/25 06:24:47;;;;;;;16.25;5.75;;;2.70;54.90;;;;;;5049511;28;20123;-76
2022/02/25 06:27:13;;;;;;;28.50;11.15;;;2.70;55.00;;;;;;5049292;28;20041;-77
2022/02/25 06:29:39;;;;;;;21.15;9.38;;;2.70;55.10;;;;;;5050490;28;20025;-75
2022/02/25 06:32:05;;;;;;;20.20;9.52;;;2.80;55.10;;;;;;5048775;28;20515;-77
2022/02/25 06:34:31;;;;;;;26.85;11.68;;;2.80;54.50;;;;;;5050848;28;20052;-77
2022/02/25 06:36:58;;;;;;;21.50;10.10;;;2.90;55.30;;;;;;5049175;28;20063;-77
2022/02/25 06:39:25;;;;;;;16.42;7.38;;;2.90;55.00;;;;;;5065192;28;20332;-76
2022/02/25 06:41:51;;;;;;;20.90;9.98;;;3.00;55.80;;;;;;5052932;28;20033;-77
2022/02/25 06:44:17;;;;;;;23.48;8.05;;;3.00;55.10;;;;;;5049332;28;20417;-75
2022/02/25 06:46:43;;;;;;;20.58;8.65;;;3.10;55.10;;;;;;5050310;28;20049;-77
2022/02/25 06:49:11;;;;;;;20.05;9.75;;;3.20;55.00;;;;;;5050729;28;20037;-77
2022/02/25 06:51:37;;;;;;;24.02;10.32;;;3.20;55.00;;;;;;5050116;28;20508;-76
2022/02/25 06:54:03;;;;;;;21.75;10.25;;;3.30;55.10;;;;;;5044551;28;20500;-76
2022/02/25 06:56:30;;;;;;;28.30;10.10;;;3.30;55.10;;;;;;5067738;28;20032;-77
2022/02/25 06:58:57;;;;;;;33.72;13.85;;;3.40;55.10;;;;;;5058667;28;20037;-75
2022/02/25 07:01:23;;;;;;;51.53;18.75;;;3.50;55.10;;;;;;5051276;28;20037;-75
2022/02/25 07:03:49;;;;;;;61.38;23.60;;;3.60;55.10;;;;;;5049042;28;20119;-76
2022/02/25 07:06:15;;;;;;;68.63;25.67;;;3.60;55.20;;;;;;5050406;28;20060;-76
2022/02/25 07:08:41;;;;;;;83.15;31.10;;;3.70;55.20;;;;;;5050837;28;20028;-76
2022/02/25 07:11:07;;;;;;;76.95;27.40;;;3.80;55.90;;;;;;5048621;28;20047;-75
2022/02/25 07:13:34;;;;;;;51.40;21.60;;;3.90;55.10;;;;;;5050677;28;20115;-76
2022/02/25 07:16:00;;;;;;;45.67;21.45;;;4.00;55.30;;;;;;5057689;28;20076;-76
2022/02/25 07:18:27;;;;;;;28.13;13.15;;;4.10;55.20;;;;;;5049999;28;20029;-74
2022/02/25 07:20:53;;;;;;;23.30;11.20;;;4.20;55.20;;;;;;5048493;28;20043;-76
2022/02/25 07:23:20;;;;;;;24.55;13.13;;;4.30;54.90;;;;;;5051368;28;20071;-76
2022/02/25 07:25:46;;;;;;;36.80;13.93;;;4.40;55.50;;;;;;5083039;28;20041;-76
2022/02/25 07:28:12;;;;;;;30.58;15.88;;;4.50;55.30;;;;;;5051343;28;20412;-76
2022/02/25 07:30:38;;;;;;;;;;;4.60;55.20;;;;;;5050293;28;20291;-76
2022/02/25 07:33:05;;;;;;;82.53;34.45;;;4.70;54.60;;;;;;5034060;28;20082;-76
2022/02/25 07:35:31;;;;;;;;;;;4.80;54.70;;;;;;5047822;28;20516;-75
2022/02/25 07:38:00;;;;;;;51.20;24.30;;;5.00;54.30;;;;;;5048647;28;19921;-76
2022/02/25 07:40:27;;;;;;;60.60;29.30;;;5.10;54.20;;;;;;5048247;28;20043;-76
2022/02/25 07:42:54;;;;;;;53.40;25.67;;;5.30;53.60;;;;;;5050263;28;20037;-76
2022/02/25 07:45:20;;;;;;;47.78;23.27;;;5.40;54.00;;;;;;5049475;28;20436;-75
2022/02/25 07:47:46;;;;;;;;;;;5.60;54.20;;;;;;5038629;28;20402;-75
2022/02/25 07:50:14;;;;;;;33.78;16.80;;;5.70;53.80;;;;;;5048288;28;19927;-76
2022/02/25 07:52:42;;;;;;;28.55;14.23;;;5.80;53.70;;;;;;5051972;28;20078;-75
2022/02/25 07:55:09;;;;;;;32.13;16.42;;;6.00;53.80;;;;;;5051996;28;20041;-75
2022/02/25 07:57:36;;;;;;;24.05;12.27;;;6.10;53.70;;;;;;5052653;28;20048;-76
2022/02/25 08:00:06;;;;;;;20.65;9.02;;;6.30;53.30;;;;;;5053593;28;20078;-76
2022/02/25 08:02:32;;;;;;;25.30;11.90;;;6.40;53.40;;;;;;5055944;28;20494;-76
2022/02/25 08:04:59;;;;;;;23.65;10.95;;;6.60;53.30;;;;;;5067746;28;20055;-75
2022/02/25 08:07:25;;;;;;;20.65;10.35;;;6.80;53.10;;;;;;5051916;28;20033;-76
2022/02/25 08:09:52;;;;;;;28.42;13.63;;;7.00;52.90;;;;;;5052441;28;20550;-76
2022/02/25 08:12:18;;;;;;;36.45;17.65;;;7.20;52.60;;;;;;5067278;28;20029;-77
2022/02/25 08:14:44;;;;;;;41.38;19.65;;;7.40;52.50;;;;;;5071409;28;20398;-76
2022/02/25 08:17:10;;;;;;;33.20;17.42;;;7.60;52.40;;;;;;5054171;28;20045;-75
2022/02/25 08:19:36;;;;;;;31.67;16.25;;;7.80;52.20;;;;;;5051790;28;20037;-75
2022/02/25 08:22:03;;;;;;;37.05;16.63;;;8.00;52.00;;;;;;5051851;28;20036;-76
2022/02/25 08:24:29;;;;;;;34.70;18.17;;;8.20;51.00;;;;;;5052223;28;20138;-75
2022/02/25 08:26:55;;;;;;;32.95;16.08;;;8.60;51.10;;;;;;5048976;28;20039;-76
2022/02/25 08:29:21;;;;;;;30.77;15.25;;;8.80;50.90;;;;;;5057951;28;20136;-75
2022/02/25 08:31:51;;;;;;;25.00;12.15;;;8.90;50.80;;;;;;5052942;28;20497;-76
2022/02/25 08:34:19;;;;;;;24.90;13.32;;;9.10;50.70;;;;;;5052957;28;20037;-76
2022/02/25 08:36:45;;;;;;;25.92;13.52;;;9.40;50.20;;;;;;5051503;28;20040;-76
2022/02/25 08:39:11;;;;;;;27.15;13.57;;;9.60;49.70;;;;;;5051431;28;20116;-76
2022/02/25 08:41:37;;;;;;;24.23;12.15;;;9.80;49.70;;;;;;5052898;28;20104;-75
2022/02/25 08:44:04;;;;;;;23.95;12.55;;;9.90;49.50;;;;;;5053010;28;20438;-77
2022/02/25 08:46:31;;;;;;;23.05;10.73;;;10.00;49.30;;;;;;5049978;28;20486;-75
2022/02/25 08:48:58;;;;;;;19.98;10.75;;;10.10;49.20;;;;;;5052315;28;20067;-76
2022/02/25 08:51:25;;;;;;;20.15;9.73;;;10.20;49.70;;;;;;5051040;28;20086;-75
2022/02/25 08:53:51;;;;;;;26.50;12.18;;;10.20;48.00;;;;;;5036702;28;20460;-75
2022/02/25 08:56:17;;;;;;;23.50;12.05;;;10.30;48.50;;;;;;5052649;28;20119;-77
2022/02/25 08:58:43;;;;;;;21.00;12.05;;;10.40;48.20;;;;;;5053496;28;20044;-76
2022/02/25 09:01:09;;;;;;;25.98;12.10;;;10.50;48.10;;;;;;5068392;28;20976;-76
2022/02/25 09:03:35;;;;;;;20.15;11.25;;;10.60;48.00;;;;;;5051276;28;20033;-76
2022/02/25 09:06:02;;;;;;;18.60;11.85;;;10.70;47.90;;;;;;5054363;28;20095;-76
2022/02/25 09:08:29;;;;;;;21.13;11.48;;;10.80;47.70;;;;;;5034738;28;20056;-77
2022/02/25 09:10:56;;;;;;;26.58;12.75;;;11.00;47.50;;;;;;5050787;28;20043;-77
2022/02/25 09:13:22;;;;;;;26.83;12.68;;;11.10;47.20;;;;;;5050897;28;20037;-76
2022/02/25 09:15:48;;;;;;;29.92;15.05;;;11.30;46.80;;;;;;5061301;28;20045;-75
2022/02/25 09:18:15;;;;;;;24.58;15.63;;;11.50;46.60;;;;;;5055412;28;20079;-76
2022/02/25 09:20:43;;;;;;;18.02;11.82;;;11.60;46.20;;;;;;5034259;28;20032;-75
2022/02/25 09:23:09;;;;;;;15.55;8.18;;;11.90;45.60;;;;;;5051902;28;20044;-76
2022/02/25 09:25:35;;;;;;;;;;;12.20;44.40;;;;;;5045613;28;20269;-76
2022/02/25 09:28:01;;;;;;;13.77;5.75;;;12.70;45.10;;;;;;5059404;28;19920;-75
2022/02/25 09:30:28;;;;;;;;;;;13.00;43.80;;;;;;5053173;28;20028;-75
2022/02/25 09:32:54;;;;;;;15.55;6.38;;;13.40;44.00;;;;;;5039321;28;19913;-77
2022/02/25 09:35:21;;;;;;;15.93;7.35;;;13.80;42.80;;;;;;5057369;28;20438;-75
2022/02/25 09:37:47;;;;;;;15.82;7.82;;;14.00;42.30;;;;;;5051719;28;20020;-75
2022/02/25 09:40:15;;;;;;;;;;;14.10;42.30;;;;;;5065602;28;20094;-76
2022/02/25 09:42:43;;;;;;;42.00;19.30;;;14.30;42.80;;;;;;5035100;28;19928;-76
2022/02/25 09:45:12;;;;;;;24.58;14.93;;;14.20;41.80;;;;;;5034945;28;20440;-76
2022/02/25 09:47:38;;;;;;;23.83;11.60;;;14.00;42.20;;;;;;5051604;28;20047;-75
2022/02/25 09:50:26;;;;;;;21.88;11.68;;;13.80;42.80;;;;;;5050543;28;20040;-77
2022/02/25 09:52:52;;;;;;;;;;;13.60;43.20;;;;;;5069027;28;20082;-76
2022/02/25 09:55:37;;;;;;;11.00;4.50;;;13.40;43.80;;;;;;5049923;28;19927;-76
2022/02/25 09:58:06;;;;;;;9.77;5.18;;;13.10;42.80;;;;;;5051563;28;20072;-77
2022/02/25 10:00:35;;;;;;;12.32;6.45;;;12.90;43.60;;;;;;5050988;28;20090;-76
2022/02/25 10:03:07;;;;;;;14.52;7.95;;;12.60;43.20;;;;;;5051897;28;20021;-75
2022/02/25 10:05:35;;;;;;;14.10;7.35;;;12.40;43.30;;;;;;5066912;28;20052;-77
2022/02/25 10:08:35;;;;;;;16.40;8.32;;;12.20;42.70;;;;;;5068126;28;20043;-76
2022/02/25 10:11:03;;;;;;;15.07;7.22;;;12.10;42.50;;;;;;5052310;28;20037;-76
2022/02/25 10:13:32;;;;;;;15.00;7.10;;;12.20;42.10;;;;;;5048834;28;20101;-76
2022/02/25 10:16:03;;;;;;;27.65;9.40;;;12.30;41.90;;;;;;5048919;28;20033;-76
2022/02/25 10:18:33;;;;;;;24.08;8.15;;;12.20;41.50;;;;;;5049784;28;20086;-76
2022/02/25 10:21:23;;;;;;;13.73;6.50;;;12.10;41.60;;;;;;5049400;28;20031;-76
2022/02/25 10:23:49;;;;;;;13.40;5.78;;;12.00;41.90;;;;;;5050095;28;20124;-74
2022/02/25 10:26:19;;;;;;;13.45;6.63;;;12.00;42.20;;;;;;5032885;28;20128;-77
2022/02/25 10:29:06;;;;;;;11.35;5.55;;;12.00;41.80;;;;;;5034351;28;20091;-76
2022/02/25 10:31:36;;;;;;;11.95;5.60;;;12.00;41.90;;;;;;5049239;28;20087;-76
2022/02/25 10:34:24;;;;;;;11.35;5.88;;;12.00;41.80;;;;;;5049532;28;20052;-76
2022/02/25 10:36:55;;;;;;;11.55;5.50;;;12.00;41.90;;;;;;5049173;28;20045;-77
2022/02/25 10:39:41;;;;;;;11.20;5.28;;;12.00;41.80;;;;;;5050700;28;20025;-76
2022/02/25 10:42:26;;;;;;;12.50;5.47;;;12.10;41.90;;;;;;5051883;28;20047;-77
2022/02/25 10:45:11;;;;;;;11.25;5.00;;;12.10;41.90;;;;;;5065178;28;20036;-76
2022/02/25 10:47:43;;;;;;;14.05;5.95;;;12.20;41.70;;;;;;5030904;28;20052;-77
2022/02/25 10:50:28;;;;;;;11.63;5.85;;;12.20;41.10;;;;;;5035648;28;20124;-76
2022/02/25 10:52:55;;;;;;;10.98;5.28;;;12.20;41.00;;;;;;5032644;28;20041;-76
2022/02/25 10:55:26;;;;;;;9.07;4.55;;;12.20;40.80;;;;;;5032159;28;20060;-76
2022/02/25 10:57:56;;;;;;;10.73;5.43;;;12.20;40.60;;;;;;5060934;28;20072;-77
2022/02/25 11:00:24;;;;;;;14.68;4.47;;;12.40;40.50;;;;;;5048610;28;20044;-77
2022/02/25 11:02:52;;;;;;;14.02;5.82;;;12.50;40.20;;;;;;5049774;28;20017;-76
2022/02/25 11:05:42;;;;;;;11.82;5.80;;;12.60;40.10;;;;;;5039564;28;20052;-76
2022/02/25 11:08:08;;;;;;;11.32;6.13;;;12.70;40.10;;;;;;5059729;28;20037;-77
2022/02/25 11:10:35;;;;;;;13.30;6.38;;;12.90;40.00;;;;;;5050317;28;20021;-76
2022/02/25 11:13:05;;;;;;;10.18;5.22;;;13.00;39.90;;;;;;5049148;28;20041;-76
2022/02/25 11:15:36;;;;;;;10.43;5.10;;;13.10;39.50;;;;;;5050020;28;20559;-76
2022/02/25 11:18:03;;;;;;;11.40;5.03;;;13.20;39.20;;;;;;5049878;28;20056;-75
2022/02/25 11:20:34;;;;;;;12.27;5.97;;;13.10;39.10;;;;;;5049679;28;20132;-76
2022/02/25 11:23:21;;;;;;;10.07;5.18;;;13.00;38.80;;;;;;5049828;28;20047;-76
2022/02/25 11:25:49;;;;;;;15.48;4.88;;;12.80;39.10;;;;;;5050951;28;20044;-76
2022/02/25 11:28:16;;;;;;;11.02;4.75;;;12.60;39.20;;;;;;5054584;28;20394;-76
2022/02/25 11:31:06;;;;;;;12.20;5.45;;;12.60;39.10;;;;;;5053681;28;20174;-75
2022/02/25 11:33:33;;;;;;;13.95;6.40;;;12.50;39.30;;;;;;5053035;28;20052;-76
2022/02/25 11:36:20;;;;;;;11.40;5.40;;;12.50;39.70;;;;;;5037047;28;20052;-76
2022/02/25 11:38:48;;;;;;;9.77;4.68;;;12.50;39.70;;;;;;5065865;28;20124;-76
2022/02/25 11:41:32;;;;;;;11.48;4.75;;;12.40;39.50;;;;;;5053439;28;20033;-76
2022/02/25 11:44:01;;;;;;;14.40;5.75;;;12.30;39.60;;;;;;5068312;28;20520;-76
2022/02/25 11:46:48;;;;;;;11.63;5.45;;;12.20;39.50;;;;;;5050533;28;20082;-76
2022/02/25 11:49:37;;;;;;;14.95;6.35;;;12.20;39.40;;;;;;5062841;28;20047;-76
2022/02/25 11:52:08;;;;;;;11.10;5.28;;;12.20;39.90;;;;;;5053622;28;20049;-76
2022/02/25 11:54:53;;;;;;;9.73;4.00;;;12.20;40.00;;;;;;5052497;28;20045;-76
2022/02/25 11:57:22;;;;;;;10.13;4.47;;;12.20;39.70;;;;;;5053423;28;20087;-77
2022/02/25 11:59:48;;;;;;;12.13;4.50;;;12.10;39.30;;;;;;5053141;28;20025;-76
2022/02/25 12:02:35;;;;;;;10.65;5.00;;;12.20;39.50;;;;;;5052744;28;20106;-76
2022/02/25 12:05:03;;;;;;;9.77;4.20;;;12.20;39.40;;;;;;5051329;28;20068;-76
2022/02/25 12:07:45;;;;;;;9.32;3.70;;;12.20;39.40;;;;;;5063963;28;20494;-76
2022/02/25 12:10:11;;;;;;;8.77;4.13;;;12.20;39.40;;;;;;5059049;28;20213;-77
2022/02/25 12:12:43;;;;;;;7.40;4.10;;;12.10;39.50;;;;;;5053363;28;20102;-75
2022/02/25 12:15:49;;;;;;;8.75;3.67;;;12.10;39.40;;;;;;5057507;28;20106;-77
2022/02/25 12:18:16;;;;;;;9.65;4.65;;;12.10;39.40;;;;;;5055106;28;20057;-75
2022/02/25 12:21:01;;;;;;;11.98;4.60;;;12.10;39.50;;;;;;5052096;28;20047;-77
2022/02/25 12:23:48;;;;;;;10.75;4.82;;;12.20;39.50;;;;;;5054453;28;20106;-75
2022/02/25 12:26:15;;;;;;;11.98;5.05;;;12.30;39.00;;;;;;5051500;28;20041;-76
2022/02/25 12:29:13;;;;;;;11.57;4.03;;;12.40;38.80;;;;;;5053070;28;20128;-77
2022/02/25 12:31:58;;;;;;;6.57;2.67;;;12.40;38.20;;;;;;5082901;28;20126;-76
2022/02/25 12:34:25;;;;;;;7.55;2.40;;;12.30;38.00;;;;;;5069360;28;20073;-76
2022/02/25 12:36:54;;;;;;;4.43;2.00;;;12.20;37.70;;;;;;5067398;28;20128;-77
2022/02/25 12:39:38;;;;;;;6.55;2.15;;;12.10;37.40;;;;;;5070648;28;20031;-76
2022/02/25 12:42:09;;;;;;;9.80;2.25;;;12.00;37.40;;;;;;5061540;28;20044;-76
2022/02/25 12:44:42;;;;;;;9.20;2.50;;;11.90;37.40;;;;;;5066185;28;20136;-76
2022/02/25 12:47:10;;;;;;;10.10;2.53;;;11.80;37.20;;;;;;5051599;28;20107;-76
2022/02/25 12:49:39;;;;;;;9.27;2.55;;;11.70;37.40;;;;;;5070161;28;20124;-77
2022/02/25 12:52:10;;;;;;;4.65;1.83;;;11.70;37.70;;;;;;5052427;28;20063;-78
2022/02/25 12:54:39;;;;;;;17.05;3.67;;;11.60;37.70;;;;;;5051695;28;20558;-77
2022/02/25 12:57:08;;;;;;;6.53;2.05;;;11.50;38.10;;;;;;5049235;28;20037;-76
2022/02/25 13:00:00;;;;;;;8.48;2.80;;;11.50;37.90;;;;;;5048727;28;20127;-78
2022/02/25 13:02:26;;;;;;;5.05;1.77;;;11.50;37.90;;;;;;5053237;28;20049;-76